sensor_id;sensor_type;location;lat;lon;timestamp;pressure;altitude;pressure_sealevel;temperature;humidity
37304;BME280;23188;51.188;16.374;2022-11-04T00:01:14;99346.41;;;10.52;100.00
37304;BME280;23188;51.188;16.374;2022-11-04T00:05:15;99327.10;;;10.50;100.00
37304;BME280;23188;51.188;16.374;2022-11-04T00:09:23;99326.48;;;10.28;100.00
37304;BME280;23188;51.188;16.374;2022-11-04T00:13:29;99325.59;;;10.23;100.00
37304;BME280;23188;51.188;16.374;2022-11-04T00:17:30;99314.83;;;10.25;100.00
37304;BME280;23188;51.188;16.374;2022-11-04T00:21:31;99312.22;;;10.29;100.00
37304;BME280;23188;51.188;16.374;2022-11-04T00:25:51;99311.57;;;10.31;100.00
37304;BME280;23188;51.188;16.374;2022-11-04T00:30:11;99311.05;;;10.41;100.00
37304;BME280;23188;51.188;16.374;2022-11-04T00:34:12;99306.31;;;10.49;100.00
37304;BME280;23188;51.188;16.374;2022-11-04T00:38:14;99306.76;;;10.59;100.00
37304;BME280;23188;51.188;16.374;2022-11-04T00:42:16;99289.91;;;10.54;100.00
37304;BME280;23188;51.188;16.374;2022-11-04T00:46:25;99288.23;;;10.39;100.00
37304;BME280;23188;51.188;16.374;2022-11-04T00:50:26;99275.89;;;10.34;100.00
37304;BME280;23188;51.188;16.374;2022-11-04T00:54:28;99280.36;;;10.33;100.00
37304;BME280;23188;51.188;16.374;2022-11-04T00:58:30;99267.56;;;10.19;100.00
37304;BME280;23188;51.188;16.374;2022-11-04T01:02:32;99255.30;;;10.22;100.00
37304;BME280;23188;51.188;16.374;2022-11-04T01:06:34;99249.71;;;10.25;100.00
37304;BME280;23188;51.188;16.374;2022-11-04T01:14:55;99249.11;;;10.31;100.00
37304;BME280;23188;51.188;16.374;2022-11-04T01:18:56;99233.91;;;10.23;100.00
37304;BME280;23188;51.188;16.374;2022-11-04T01:22:58;99241.16;;;10.17;100.00
37304;BME280;23188;51.188;16.374;2022-11-04T01:27:00;99246.30;;;10.19;100.00
37304;BME280;23188;51.188;16.374;2022-11-04T01:31:11;99239.46;;;10.30;100.00
37304;BME280;23188;51.188;16.374;2022-11-04T01:35:09;99235.72;;;10.37;100.00
37304;BME280;23188;51.188;16.374;2022-11-04T01:39:11;99226.68;;;10.43;100.00
37304;BME280;23188;51.188;16.374;2022-11-04T01:43:18;99223.72;;;10.47;100.00
37304;BME280;23188;51.188;16.374;2022-11-04T01:47:27;99225.83;;;10.43;100.00
37304;BME280;23188;51.188;16.374;2022-11-04T01:51:31;99220.11;;;10.38;100.00
37304;BME280;23188;51.188;16.374;2022-11-04T01:55:38;99215.92;;;10.35;100.00
37304;BME280;23188;51.188;16.374;2022-11-04T01:59:41;99211.28;;;10.37;100.00
37304;BME280;23188;51.188;16.374;2022-11-04T02:03:55;99216.46;;;10.39;100.00
37304;BME280;23188;51.188;16.374;2022-11-04T02:07:57;99211.48;;;10.40;100.00
37304;BME280;23188;51.188;16.374;2022-11-04T02:12:02;99210.94;;;10.36;100.00
37304;BME280;23188;51.188;16.374;2022-11-04T02:26:13;99214.97;;;10.73;100.00
37304;BME280;23188;51.188;16.374;2022-11-04T02:30:19;99211.44;;;10.50;100.00
37304;BME280;23188;51.188;16.374;2022-11-04T02:39:54;99202.25;;;10.30;100.00
37304;BME280;23188;51.188;16.374;2022-11-04T02:48:29;99192.74;;;10.27;100.00
37304;BME280;23188;51.188;16.374;2022-11-04T02:52:55;99196.32;;;10.36;100.00
37304;BME280;23188;51.188;16.374;2022-11-04T02:56:58;99191.64;;;10.48;100.00
37304;BME280;23188;51.188;16.374;2022-11-04T03:01:03;99187.91;;;10.59;100.00
37304;BME280;23188;51.188;16.374;2022-11-04T03:05:31;99190.63;;;10.63;100.00
37304;BME280;23188;51.188;16.374;2022-11-04T03:09:36;99178.33;;;10.62;100.00
37304;BME280;23188;51.188;16.374;2022-11-04T03:14:06;99174.70;;;10.67;100.00
37304;BME280;23188;51.188;16.374;2022-11-04T03:22:44;99164.45;;;10.77;100.00
37304;BME280;23188;51.188;16.374;2022-11-04T03:30:58;99159.69;;;10.84;100.00
37304;BME280;23188;51.188;16.374;2022-11-04T03:35:09;99154.83;;;10.80;100.00
37304;BME280;23188;51.188;16.374;2022-11-04T03:39:11;99163.44;;;10.74;100.00
37304;BME280;23188;51.188;16.374;2022-11-04T03:43:16;99160.41;;;10.68;100.00
37304;BME280;23188;51.188;16.374;2022-11-04T03:47:23;99155.09;;;10.68;100.00
37304;BME280;23188;51.188;16.374;2022-11-04T03:51:26;99150.23;;;10.64;100.00
37304;BME280;23188;51.188;16.374;2022-11-04T03:55:34;99153.59;;;10.70;100.00
37304;BME280;23188;51.188;16.374;2022-11-04T04:08:24;99140.71;;;10.79;100.00
37304;BME280;23188;51.188;16.374;2022-11-04T04:12:35;99144.44;;;10.64;100.00
37304;BME280;23188;51.188;16.374;2022-11-04T04:16:42;99143.87;;;10.56;100.00
37304;BME280;23188;51.188;16.374;2022-11-04T04:20:53;99141.04;;;10.40;100.00
37304;BME280;23188;51.188;16.374;2022-11-04T04:24:57;99137.44;;;10.27;100.00
37304;BME280;23188;51.188;16.374;2022-11-04T04:29:25;99130.98;;;10.11;100.00
37304;BME280;23188;51.188;16.374;2022-11-04T04:33:28;99131.02;;;9.97;100.00
37304;BME280;23188;51.188;16.374;2022-11-04T04:37:30;99123.75;;;9.85;100.00
37304;BME280;23188;51.188;16.374;2022-11-04T04:41:31;99121.43;;;9.72;100.00
37304;BME280;23188;51.188;16.374;2022-11-04T04:46:09;99116.12;;;9.72;100.00
37304;BME280;23188;51.188;16.374;2022-11-04T04:50:14;99105.86;;;9.60;100.00
37304;BME280;23188;51.188;16.374;2022-11-04T04:54:16;99098.34;;;9.69;100.00
37304;BME280;23188;51.188;16.374;2022-11-04T04:58:18;99100.39;;;9.75;100.00
37304;BME280;23188;51.188;16.374;2022-11-04T05:02:19;99094.53;;;9.71;100.00
37304;BME280;23188;51.188;16.374;2022-11-04T05:10:51;99094.26;;;9.75;100.00
37304;BME280;23188;51.188;16.374;2022-11-04T05:14:52;99097.59;;;9.77;100.00
37304;BME280;23188;51.188;16.374;2022-11-04T05:18:53;99096.75;;;9.76;100.00
37304;BME280;23188;51.188;16.374;2022-11-04T05:22:55;99102.27;;;9.79;100.00
37304;BME280;23188;51.188;16.374;2022-11-04T05:26:56;99102.09;;;9.80;100.00
37304;BME280;23188;51.188;16.374;2022-11-04T05:31:04;99096.75;;;9.76;100.00
37304;BME280;23188;51.188;16.374;2022-11-04T05:35:06;99097.12;;;9.81;100.00
37304;BME280;23188;51.188;16.374;2022-11-04T05:39:11;99102.84;;;9.86;100.00
37304;BME280;23188;51.188;16.374;2022-11-04T05:47:43;99095.64;;;10.15;100.00
37304;BME280;23188;51.188;16.374;2022-11-04T05:51:52;99105.34;;;10.24;100.00
37304;BME280;23188;51.188;16.374;2022-11-04T05:55:53;99110.86;;;10.27;100.00
37304;BME280;23188;51.188;16.374;2022-11-04T05:59:54;99112.50;;;10.24;100.00
37304;BME280;23188;51.188;16.374;2022-11-04T06:03:56;99107.74;;;10.13;100.00
37304;BME280;23188;51.188;16.374;2022-11-04T06:08:16;99106.72;;;10.10;100.00
37304;BME280;23188;51.188;16.374;2022-11-04T06:12:17;99098.31;;;10.01;100.00
37304;BME280;23188;51.188;16.374;2022-11-04T06:16:18;99111.09;;;9.97;100.00
37304;BME280;23188;51.188;16.374;2022-11-04T06:20:20;99121.55;;;9.99;100.00
37304;BME280;23188;51.188;16.374;2022-11-04T06:24:26;99117.11;;;10.04;100.00
37304;BME280;23188;51.188;16.374;2022-11-04T06:32:49;99135.27;;;10.26;100.00
37304;BME280;23188;51.188;16.374;2022-11-04T06:36:50;99149.30;;;10.51;100.00
37304;BME280;23188;51.188;16.374;2022-11-04T06:40:52;99162.40;;;10.66;100.00
37304;BME280;23188;51.188;16.374;2022-11-04T06:44:53;99158.88;;;10.84;100.00
37304;BME280;23188;51.188;16.374;2022-11-04T06:48:55;99156.12;;;10.94;100.00
37304;BME280;23188;51.188;16.374;2022-11-04T06:53:03;99165.64;;;11.00;100.00
37304;BME280;23188;51.188;16.374;2022-11-04T06:57:05;99168.66;;;11.06;100.00
37304;BME280;23188;51.188;16.374;2022-11-04T07:01:06;99185.30;;;11.08;100.00
37304;BME280;23188;51.188;16.374;2022-11-04T07:05:08;99194.71;;;11.20;100.00
37304;BME280;23188;51.188;16.374;2022-11-04T07:09:20;99212.07;;;11.33;100.00
37304;BME280;23188;51.188;16.374;2022-11-04T07:13:21;99209.66;;;11.48;100.00
37304;BME280;23188;51.188;16.374;2022-11-04T07:17:23;99202.73;;;11.28;100.00
37304;BME280;23188;51.188;16.374;2022-11-04T07:21:43;99211.69;;;10.79;100.00
37304;BME280;23188;51.188;16.374;2022-11-04T07:30:16;99200.53;;;10.57;100.00
37304;BME280;23188;51.188;16.374;2022-11-04T07:34:20;99210.38;;;10.61;100.00
37304;BME280;23188;51.188;16.374;2022-11-04T07:38:22;99210.66;;;10.76;100.00
37304;BME280;23188;51.188;16.374;2022-11-04T07:42:23;99208.48;;;10.93;100.00
37304;BME280;23188;51.188;16.374;2022-11-04T07:46:24;99215.04;;;11.03;100.00
37304;BME280;23188;51.188;16.374;2022-11-04T07:50:26;99208.14;;;11.14;100.00
37304;BME280;23188;51.188;16.374;2022-11-04T07:54:27;99208.06;;;11.28;100.00
37304;BME280;23188;51.188;16.374;2022-11-04T07:58:28;99212.16;;;11.45;100.00
37304;BME280;23188;51.188;16.374;2022-11-04T08:02:30;99207.87;;;11.56;100.00
37304;BME280;23188;51.188;16.374;2022-11-04T08:06:31;99209.27;;;11.69;100.00
37304;BME280;23188;51.188;16.374;2022-11-04T08:10:33;99201.35;;;11.85;100.00
37304;BME280;23188;51.188;16.374;2022-11-04T08:14:35;99207.70;;;11.97;100.00
37304;BME280;23188;51.188;16.374;2022-11-04T08:18:36;99212.45;;;12.11;100.00
37304;BME280;23188;51.188;16.374;2022-11-04T08:22:38;99214.31;;;12.27;100.00
37304;BME280;23188;51.188;16.374;2022-11-04T08:26:39;99208.34;;;12.42;100.00
37304;BME280;23188;51.188;16.374;2022-11-04T08:31:02;99200.53;;;12.53;100.00
37304;BME280;23188;51.188;16.374;2022-11-04T08:35:05;99192.54;;;12.69;100.00
37304;BME280;23188;51.188;16.374;2022-11-04T08:39:09;99203.04;;;12.83;100.00
37304;BME280;23188;51.188;16.374;2022-11-04T08:43:10;99204.53;;;12.94;100.00
37304;BME280;23188;51.188;16.374;2022-11-04T08:47:12;99202.54;;;13.05;100.00
37304;BME280;23188;51.188;16.374;2022-11-04T08:51:17;99203.70;;;13.10;100.00
37304;BME280;23188;51.188;16.374;2022-11-04T08:55:19;99197.01;;;13.19;100.00
37304;BME280;23188;51.188;16.374;2022-11-04T08:59:21;99202.85;;;13.22;100.00
37304;BME280;23188;51.188;16.374;2022-11-04T09:03:24;99190.82;;;13.26;100.00
37304;BME280;23188;51.188;16.374;2022-11-04T09:07:26;99193.80;;;13.40;100.00
37304;BME280;23188;51.188;16.374;2022-11-04T09:11:27;99188.77;;;13.53;100.00
37304;BME280;23188;51.188;16.374;2022-11-04T09:15:29;99184.05;;;13.68;100.00
37304;BME280;23188;51.188;16.374;2022-11-04T09:19:31;99187.68;;;13.75;100.00
37304;BME280;23188;51.188;16.374;2022-11-04T09:23:32;99191.17;;;13.80;100.00
37304;BME280;23188;51.188;16.374;2022-11-04T09:27:34;99182.02;;;13.78;100.00
37304;BME280;23188;51.188;16.374;2022-11-04T09:31:36;99175.80;;;13.86;100.00
37304;BME280;23188;51.188;16.374;2022-11-04T09:35:38;99175.25;;;13.91;100.00
37304;BME280;23188;51.188;16.374;2022-11-04T09:39:39;99184.94;;;13.96;100.00
37304;BME280;23188;51.188;16.374;2022-11-04T09:48:40;99186.19;;;14.08;100.00
37304;BME280;23188;51.188;16.374;2022-11-04T09:52:29;99178.77;;;14.23;99.72
37304;BME280;23188;51.188;16.374;2022-11-04T09:56:36;99172.17;;;14.34;97.67
37304;BME280;23188;51.188;16.374;2022-11-04T10:00:41;99174.19;;;14.32;96.97
37304;BME280;23188;51.188;16.374;2022-11-04T10:09:40;99172.42;;;14.43;98.01
37304;BME280;23188;51.188;16.374;2022-11-04T10:23:25;99184.91;;;14.78;94.03
37304;BME280;23188;51.188;16.374;2022-11-04T10:27:25;99185.44;;;14.74;95.28
37304;BME280;23188;51.188;16.374;2022-11-04T10:31:28;99181.47;;;14.65;93.96
37304;BME280;23188;51.188;16.374;2022-11-04T10:35:41;99179.16;;;14.62;94.10
37304;BME280;23188;51.188;16.374;2022-11-04T10:39:54;99177.21;;;14.52;94.24
37304;BME280;23188;51.188;16.374;2022-11-04T10:44:21;99174.01;;;14.56;95.86
37304;BME280;23188;51.188;16.374;2022-11-04T10:48:31;99173.44;;;14.65;95.50
37304;BME280;23188;51.188;16.374;2022-11-04T10:52:34;99169.70;;;14.70;96.25
37304;BME280;23188;51.188;16.374;2022-11-04T10:56:40;99171.81;;;14.60;94.86
37304;BME280;23188;51.188;16.374;2022-11-04T11:00:46;99165.17;;;14.52;95.67
37304;BME280;23188;51.188;16.374;2022-11-04T11:04:48;99165.20;;;14.48;97.04
37304;BME280;23188;51.188;16.374;2022-11-04T11:08:51;99157.78;;;14.58;97.02
37304;BME280;23188;51.188;16.374;2022-11-04T11:17:16;99146.63;;;14.74;96.13
37304;BME280;23188;51.188;16.374;2022-11-04T11:21:21;99134.25;;;14.73;96.29
37304;BME280;23188;51.188;16.374;2022-11-04T11:25:28;99138.38;;;14.79;95.99
37304;BME280;23188;51.188;16.374;2022-11-04T11:29:31;99140.26;;;14.94;97.03
37304;BME280;23188;51.188;16.374;2022-11-04T11:33:37;99125.74;;;15.07;94.96
37304;BME280;23188;51.188;16.374;2022-11-04T11:37:45;99128.86;;;15.11;94.79
37304;BME280;23188;51.188;16.374;2022-11-04T11:46:00;99137.05;;;15.13;94.35
37304;BME280;23188;51.188;16.374;2022-11-04T11:50:19;99127.94;;;15.19;94.39
37304;BME280;23188;51.188;16.374;2022-11-04T11:54:35;99114.11;;;15.15;93.77
37304;BME280;23188;51.188;16.374;2022-11-04T11:58:50;99114.11;;;15.15;93.77
37304;BME280;23188;51.188;16.374;2022-11-04T12:07:43;99112.77;;;15.30;93.64
37304;BME280;23188;51.188;16.374;2022-11-04T12:21:05;99122.88;;;15.39;94.56
37304;BME280;23188;51.188;16.374;2022-11-04T12:30:09;99123.89;;;15.38;94.53
37304;BME280;23188;51.188;16.374;2022-11-04T12:43:14;99120.31;;;15.41;94.26
37304;BME280;23188;51.188;16.374;2022-11-04T12:47:31;99114.72;;;15.47;93.98
37304;BME280;23188;51.188;16.374;2022-11-04T12:56:13;99100.77;;;15.52;93.05
37304;BME280;23188;51.188;16.374;2022-11-04T13:00:19;99098.47;;;15.49;91.61
37304;BME280;23188;51.188;16.374;2022-11-04T13:04:27;99091.51;;;15.44;90.69
37304;BME280;23188;51.188;16.374;2022-11-04T13:08:50;99098.12;;;15.37;90.76
37304;BME280;23188;51.188;16.374;2022-11-04T13:12:55;99099.48;;;15.33;90.98
37304;BME280;23188;51.188;16.374;2022-11-04T13:17:06;99098.08;;;15.26;91.03
37304;BME280;23188;51.188;16.374;2022-11-04T13:21:21;99098.58;;;15.25;91.79
37304;BME280;23188;51.188;16.374;2022-11-04T13:25:42;99104.63;;;15.23;92.22
37304;BME280;23188;51.188;16.374;2022-11-04T13:29:45;99099.59;;;15.24;92.83
37304;BME280;23188;51.188;16.374;2022-11-04T13:33:57;99095.89;;;15.25;92.46
37304;BME280;23188;51.188;16.374;2022-11-04T13:38:09;99098.62;;;15.21;92.12
37304;BME280;23188;51.188;16.374;2022-11-04T13:46:49;99097.09;;;15.23;92.68
37304;BME280;23188;51.188;16.374;2022-11-04T13:51:01;99100.34;;;15.18;92.56
37304;BME280;23188;51.188;16.374;2022-11-04T13:55:13;99104.59;;;15.12;93.22
37304;BME280;23188;51.188;16.374;2022-11-04T13:59:21;99098.06;;;15.11;93.72
37304;BME280;23188;51.188;16.374;2022-11-04T14:20:32;99091.23;;;15.23;94.68
37304;BME280;23188;51.188;16.374;2022-11-04T14:24:34;99099.27;;;15.23;94.02
37304;BME280;23188;51.188;16.374;2022-11-04T14:28:36;99097.98;;;15.19;94.21
37304;BME280;23188;51.188;16.374;2022-11-04T14:32:40;99105.17;;;15.19;94.45
37304;BME280;23188;51.188;16.374;2022-11-04T14:36:41;99108.38;;;15.18;94.51
37304;BME280;23188;51.188;16.374;2022-11-04T14:40:46;99100.89;;;15.13;94.52
37304;BME280;23188;51.188;16.374;2022-11-04T14:44:53;99108.08;;;15.13;94.84
37304;BME280;23188;51.188;16.374;2022-11-04T14:48:57;99117.92;;;15.17;94.61
37304;BME280;23188;51.188;16.374;2022-11-04T14:53:02;99109.89;;;15.17;93.82
37304;BME280;23188;51.188;16.374;2022-11-04T14:57:17;99118.45;;;15.16;93.04
37304;BME280;23188;51.188;16.374;2022-11-04T15:01:15;99119.05;;;15.07;92.70
37304;BME280;23188;51.188;16.374;2022-11-04T15:05:25;99128.27;;;15.05;93.39
37304;BME280;23188;51.188;16.374;2022-11-04T15:09:31;99126.13;;;15.00;93.81
37304;BME280;23188;51.188;16.374;2022-11-04T15:17:47;99124.73;;;14.89;94.57
37304;BME280;23188;51.188;16.374;2022-11-04T15:21:49;99121.20;;;14.74;95.95
37304;BME280;23188;51.188;16.374;2022-11-04T15:25:50;99119.69;;;14.52;98.42
37304;BME280;23188;51.188;16.374;2022-11-04T15:29:52;99120.78;;;14.42;99.41
37304;BME280;23188;51.188;16.374;2022-11-04T15:33:59;99119.84;;;14.35;99.82
37304;BME280;23188;51.188;16.374;2022-11-04T15:38:02;99129.53;;;14.32;100.00
37304;BME280;23188;51.188;16.374;2022-11-04T15:42:06;99125.23;;;14.27;100.00
37304;BME280;23188;51.188;16.374;2022-11-04T15:46:29;99124.75;;;14.23;100.00
37304;BME280;23188;51.188;16.374;2022-11-04T15:50:30;99123.94;;;14.23;100.00
37304;BME280;23188;51.188;16.374;2022-11-04T15:54:34;99124.09;;;14.21;100.00
37304;BME280;23188;51.188;16.374;2022-11-04T15:58:39;99119.95;;;14.19;100.00
37304;BME280;23188;51.188;16.374;2022-11-04T16:02:48;99110.28;;;14.13;100.00
37304;BME280;23188;51.188;16.374;2022-11-04T16:11:17;99110.34;;;14.05;100.00
37304;BME280;23188;51.188;16.374;2022-11-04T16:15:39;99107.70;;;14.01;100.00
37304;BME280;23188;51.188;16.374;2022-11-04T16:19:44;99115.56;;;13.98;100.00
37304;BME280;23188;51.188;16.374;2022-11-04T16:23:50;99121.08;;;14.01;100.00
37304;BME280;23188;51.188;16.374;2022-11-04T16:27:53;99129.91;;;14.06;100.00
37304;BME280;23188;51.188;16.374;2022-11-04T16:32:19;99129.09;;;14.01;100.00
37304;BME280;23188;51.188;16.374;2022-11-04T16:36:28;99139.13;;;13.99;100.00
37304;BME280;23188;51.188;16.374;2022-11-04T16:40:31;99142.69;;;13.91;100.00
37304;BME280;23188;51.188;16.374;2022-11-04T16:44:33;99139.33;;;13.93;100.00
37304;BME280;23188;51.188;16.374;2022-11-04T16:48:34;99132.62;;;13.97;100.00
37304;BME280;23188;51.188;16.374;2022-11-04T16:52:36;99142.27;;;14.07;100.00
37304;BME280;23188;51.188;16.374;2022-11-04T16:56:37;99144.39;;;14.16;100.00
37304;BME280;23188;51.188;16.374;2022-11-04T17:00:39;99140.37;;;14.16;100.00
37304;BME280;23188;51.188;16.374;2022-11-04T17:04:40;99138.72;;;14.10;100.00
37304;BME280;23188;51.188;16.374;2022-11-04T17:08:42;99136.81;;;13.92;100.00
37304;BME280;23188;51.188;16.374;2022-11-04T17:12:45;99132.41;;;13.76;100.00
37304;BME280;23188;51.188;16.374;2022-11-04T17:16:46;99132.31;;;13.61;100.00
37304;BME280;23188;51.188;16.374;2022-11-04T17:20:50;99123.97;;;13.60;100.00
37304;BME280;23188;51.188;16.374;2022-11-04T17:24:53;99121.41;;;13.70;100.00
37304;BME280;23188;51.188;16.374;2022-11-04T17:28:54;99125.56;;;13.77;100.00
37304;BME280;23188;51.188;16.374;2022-11-04T17:32:55;99116.17;;;13.81;100.00
37304;BME280;23188;51.188;16.374;2022-11-04T17:36:57;99117.81;;;13.87;100.00
37304;BME280;23188;51.188;16.374;2022-11-04T17:40:58;99127.47;;;13.92;100.00
37304;BME280;23188;51.188;16.374;2022-11-04T17:45:17;99130.79;;;13.94;100.00
37304;BME280;23188;51.188;16.374;2022-11-04T17:49:21;99137.17;;;13.89;100.00
37304;BME280;23188;51.188;16.374;2022-11-04T17:53:23;99135.54;;;13.83;100.00
37304;BME280;23188;51.188;16.374;2022-11-04T17:57:25;99136.80;;;13.68;100.00
37304;BME280;23188;51.188;16.374;2022-11-04T18:01:27;99127.31;;;13.53;100.00
37304;BME280;23188;51.188;16.374;2022-11-04T18:05:28;99124.16;;;13.41;100.00
37304;BME280;23188;51.188;16.374;2022-11-04T18:09:30;99124.70;;;13.33;100.00
37304;BME280;23188;51.188;16.374;2022-11-04T18:13:34;99132.75;;;13.24;100.00
37304;BME280;23188;51.188;16.374;2022-11-04T18:17:40;99113.89;;;13.22;100.00
37304;BME280;23188;51.188;16.374;2022-11-04T18:21:42;99110.06;;;13.20;100.00
37304;BME280;23188;51.188;16.374;2022-11-04T18:25:44;99113.09;;;13.17;100.00
37304;BME280;23188;51.188;16.374;2022-11-04T18:29:45;99109.61;;;13.00;100.00
37304;BME280;23188;51.188;16.374;2022-11-04T18:33:47;99100.96;;;12.94;100.00
37304;BME280;23188;51.188;16.374;2022-11-04T18:37:48;99105.64;;;12.92;100.00
37304;BME280;23188;51.188;16.374;2022-11-04T18:41:49;99114.45;;;12.96;100.00
37304;BME280;23188;51.188;16.374;2022-11-04T18:45:51;99111.30;;;12.93;100.00
37304;BME280;23188;51.188;16.374;2022-11-04T18:49:53;99123.81;;;12.88;100.00
37304;BME280;23188;51.188;16.374;2022-11-04T18:53:54;99130.83;;;12.85;100.00
37304;BME280;23188;51.188;16.374;2022-11-04T18:57:56;99148.01;;;12.91;100.00
37304;BME280;23188;51.188;16.374;2022-11-04T19:01:57;99148.17;;;12.85;100.00
37304;BME280;23188;51.188;16.374;2022-11-04T19:05:58;99160.87;;;12.79;100.00
37304;BME280;23188;51.188;16.374;2022-11-04T19:10:00;99165.52;;;12.73;100.00
37304;BME280;23188;51.188;16.374;2022-11-04T19:14:05;99173.86;;;12.69;100.00
37304;BME280;23188;51.188;16.374;2022-11-04T19:18:08;99167.69;;;12.65;100.00
37304;BME280;23188;51.188;16.374;2022-11-04T19:22:09;99165.34;;;12.66;100.00
37304;BME280;23188;51.188;16.374;2022-11-04T19:26:14;99160.19;;;12.68;100.00
37304;BME280;23188;51.188;16.374;2022-11-04T19:30:23;99159.20;;;12.65;100.00
37304;BME280;23188;51.188;16.374;2022-11-04T19:34:25;99151.70;;;12.69;100.00
37304;BME280;23188;51.188;16.374;2022-11-04T19:38:26;99158.85;;;12.52;100.00
37304;BME280;23188;51.188;16.374;2022-11-04T19:42:28;99158.52;;;12.51;100.00
37304;BME280;23188;51.188;16.374;2022-11-04T19:46:48;99155.17;;;12.57;100.00
37304;BME280;23188;51.188;16.374;2022-11-04T19:50:49;99142.84;;;12.52;100.00
37304;BME280;23188;51.188;16.374;2022-11-04T19:54:53;99149.36;;;12.53;100.00
37304;BME280;23188;51.188;16.374;2022-11-04T19:58:56;99157.04;;;12.48;100.00
37304;BME280;23188;51.188;16.374;2022-11-04T20:02:58;99157.52;;;12.48;100.00
37304;BME280;23188;51.188;16.374;2022-11-04T20:06:59;99173.67;;;12.46;100.00
37304;BME280;23188;51.188;16.374;2022-11-04T20:11:02;99175.50;;;12.37;100.00
37304;BME280;23188;51.188;16.374;2022-11-04T20:15:05;99176.53;;;12.45;100.00
37304;BME280;23188;51.188;16.374;2022-11-04T20:19:08;99176.68;;;12.39;100.00
37304;BME280;23188;51.188;16.374;2022-11-04T20:23:09;99180.17;;;12.31;100.00
37304;BME280;23188;51.188;16.374;2022-11-04T20:27:11;99181.50;;;12.27;100.00
37304;BME280;23188;51.188;16.374;2022-11-04T20:31:17;99189.31;;;12.20;100.00
37304;BME280;23188;51.188;16.374;2022-11-04T20:35:19;99192.65;;;12.22;100.00
37304;BME280;23188;51.188;16.374;2022-11-04T20:39:21;99200.83;;;12.21;100.00
37304;BME280;23188;51.188;16.374;2022-11-04T20:43:22;99203.80;;;12.18;100.00
37304;BME280;23188;51.188;16.374;2022-11-04T20:47:25;99200.31;;;12.17;100.00
37304;BME280;23188;51.188;16.374;2022-11-04T20:51:29;99196.46;;;12.16;100.00
37304;BME280;23188;51.188;16.374;2022-11-04T20:55:33;99196.98;;;12.15;100.00
37304;BME280;23188;51.188;16.374;2022-11-04T20:59:38;99198.31;;;12.15;100.00
37304;BME280;23188;51.188;16.374;2022-11-04T21:03:40;99203.79;;;12.13;100.00
37304;BME280;23188;51.188;16.374;2022-11-04T21:07:42;99202.13;;;12.17;100.00
37304;BME280;23188;51.188;16.374;2022-11-04T21:11:44;99208.63;;;12.10;100.00
37304;BME280;23188;51.188;16.374;2022-11-04T21:15:52;99210.97;;;12.09;100.00
37304;BME280;23188;51.188;16.374;2022-11-04T21:19:55;99208.12;;;12.10;100.00
37304;BME280;23188;51.188;16.374;2022-11-04T21:23:57;99212.22;;;11.96;100.00
37304;BME280;23188;51.188;16.374;2022-11-04T21:28:00;99215.02;;;11.95;100.00
37304;BME280;23188;51.188;16.374;2022-11-04T21:32:01;99222.02;;;11.92;100.00
37304;BME280;23188;51.188;16.374;2022-11-04T21:36:04;99230.34;;;11.89;100.00
37304;BME280;23188;51.188;16.374;2022-11-04T21:40:08;99236.80;;;11.82;100.00
37304;BME280;23188;51.188;16.374;2022-11-04T21:44:12;99236.67;;;11.92;100.00
37304;BME280;23188;51.188;16.374;2022-11-04T21:48:13;99246.58;;;11.73;100.00
37304;BME280;23188;51.188;16.374;2022-11-04T21:52:15;99252.91;;;11.72;100.00
37304;BME280;23188;51.188;16.374;2022-11-04T21:56:21;99248.38;;;11.68;100.00
37304;BME280;23188;51.188;16.374;2022-11-04T22:00:24;99253.87;;;11.63;100.00
37304;BME280;23188;51.188;16.374;2022-11-04T22:04:25;99250.92;;;11.48;100.00
37304;BME280;23188;51.188;16.374;2022-11-04T22:08:27;99249.98;;;11.53;100.00
37304;BME280;23188;51.188;16.374;2022-11-04T22:12:29;99249.22;;;11.38;100.00
37304;BME280;23188;51.188;16.374;2022-11-04T22:16:32;99249.08;;;11.40;100.00
37304;BME280;23188;51.188;16.374;2022-11-04T22:20:35;99255.86;;;11.34;100.00
37304;BME280;23188;51.188;16.374;2022-11-04T22:24:37;99258.52;;;11.34;100.00
37304;BME280;23188;51.188;16.374;2022-11-04T22:28:38;99255.03;;;11.38;100.00
37304;BME280;23188;51.188;16.374;2022-11-04T22:32:39;99256.22;;;11.39;100.00
37304;BME280;23188;51.188;16.374;2022-11-04T22:36:41;99263.11;;;11.28;100.00
37304;BME280;23188;51.188;16.374;2022-11-04T22:40:42;99268.95;;;11.27;100.00
37304;BME280;23188;51.188;16.374;2022-11-04T22:44:43;99280.05;;;11.23;100.00
37304;BME280;23188;51.188;16.374;2022-11-04T22:48:45;99285.27;;;11.28;100.00
37304;BME280;23188;51.188;16.374;2022-11-04T22:52:47;99291.55;;;11.23;100.00
37304;BME280;23188;51.188;16.374;2022-11-04T22:56:48;99292.80;;;11.15;100.00
37304;BME280;23188;51.188;16.374;2022-11-04T23:00:58;99292.77;;;11.11;100.00
37304;BME280;23188;51.188;16.374;2022-11-04T23:05:01;99282.67;;;11.14;100.00
37304;BME280;23188;51.188;16.374;2022-11-04T23:09:03;99278.25;;;11.05;100.00
37304;BME280;23188;51.188;16.374;2022-11-04T23:13:05;99287.48;;;10.93;100.00
37304;BME280;23188;51.188;16.374;2022-11-04T23:17:24;99293.73;;;10.88;100.00
37304;BME280;23188;51.188;16.374;2022-11-04T23:21:42;99303.30;;;10.98;100.00
37304;BME280;23188;51.188;16.374;2022-11-04T23:26:01;99307.87;;;10.88;100.00
37304;BME280;23188;51.188;16.374;2022-11-04T23:30:08;99299.33;;;10.80;100.00
37304;BME280;23188;51.188;16.374;2022-11-04T23:34:24;99302.84;;;10.81;100.00
37304;BME280;23188;51.188;16.374;2022-11-04T23:38:44;99286.47;;;10.76;100.00